createdAt,value
2022-12-25T00:01:16.578Z,4.90
2022-12-25T00:03:43.870Z,5.43
2022-12-25T00:06:11.020Z,4.30
2022-12-25T00:08:40.168Z,5.05
2022-12-25T00:11:13.117Z,6.30
2022-12-25T00:13:40.364Z,6.13
2022-12-25T00:16:23.273Z,6.43
2022-12-25T00:18:51.370Z,4.63
2022-12-25T00:21:20.160Z,4.85
2022-12-25T00:23:47.098Z,7.63
2022-12-25T00:26:17.811Z,4.18
2022-12-25T00:28:45.081Z,4.80
2022-12-25T00:31:17.704Z,3.70
2022-12-25T00:33:46.576Z,6.03
2022-12-25T00:36:16.264Z,5.05
2022-12-25T00:38:43.585Z,6.60
2022-12-25T00:41:40.959Z,6.22
2022-12-25T00:44:10.354Z,9.98
2022-12-25T00:46:37.365Z,3.15
2022-12-25T00:49:04.251Z,2.80
2022-12-25T00:51:31.066Z,4.22
2022-12-25T00:53:57.897Z,3.45
2022-12-25T00:56:25.578Z,4.50
2022-12-25T00:58:52.384Z,5.63
2022-12-25T01:01:19.349Z,5.72
2022-12-25T01:03:46.254Z,2.88
2022-12-25T01:06:13.108Z,2.90
2022-12-25T01:09:04.989Z,3.03
2022-12-25T01:11:32.141Z,3.92
2022-12-25T01:13:59.270Z,4.82
2022-12-25T01:16:26.719Z,3.58
2022-12-25T01:18:54.627Z,3.22
2022-12-25T01:21:22.154Z,4.03
2022-12-25T01:23:51.214Z,4.75
2022-12-25T01:26:19.931Z,3.77
2022-12-25T01:28:46.798Z,3.25
2022-12-25T01:31:16.067Z,3.38
2022-12-25T01:33:43.990Z,4.35
2022-12-25T01:36:23.597Z,3.35
2022-12-25T01:38:52.389Z,2.70
2022-12-25T01:41:23.500Z,3.80
2022-12-25T01:44:10.550Z,2.63
2022-12-25T01:46:37.325Z,8.55
2022-12-25T01:49:12.819Z,3.80
2022-12-25T01:51:48.265Z,3.33
2022-12-25T01:54:28.561Z,3.13
2022-12-25T01:57:00.975Z,4.20
2022-12-25T01:59:28.962Z,4.40
2022-12-25T02:01:57.244Z,2.22
2022-12-25T02:04:38.941Z,3.53
2022-12-25T02:07:14.407Z,2.60
2022-12-25T02:09:41.768Z,3.80
2022-12-25T02:12:15.244Z,4.57
2022-12-25T02:14:41.999Z,2.97
2022-12-25T02:17:46.022Z,3.17
2022-12-25T02:21:15.067Z,3.05
2022-12-25T02:24:00.185Z,2.77
2022-12-25T02:27:07.865Z,3.33
2022-12-25T02:30:06.481Z,3.72
2022-12-25T02:32:53.207Z,3.53
2022-12-25T02:35:30.558Z,4.35
2022-12-25T02:38:16.296Z,3.28
2022-12-25T02:40:53.005Z,2.58
2022-12-25T02:43:50.409Z,3.63
2022-12-25T02:46:41.387Z,3.40
2022-12-25T02:49:41.919Z,3.85
2022-12-25T02:52:35.742Z,4.35
2022-12-25T02:55:44.617Z,2.95
2022-12-25T02:58:33.650Z,3.85
2022-12-25T03:01:26.703Z,2.43
2022-12-25T03:04:16.650Z,3.72
2022-12-25T03:07:16.567Z,3.38
2022-12-25T03:13:14.429Z,2.72
2022-12-25T03:15:59.849Z,2.83
2022-12-25T03:18:28.081Z,3.05
2022-12-25T03:21:13.671Z,2.88
2022-12-25T03:24:23.410Z,2.85
2022-12-25T03:26:55.947Z,5.00
2022-12-25T03:29:49.163Z,3.13
2022-12-25T03:33:18.000Z,3.88
2022-12-25T03:36:07.666Z,2.30
2022-12-25T03:39:20.827Z,2.70
2022-12-25T03:42:17.611Z,4.70
2022-12-25T03:44:54.130Z,2.63
2022-12-25T03:47:34.798Z,2.38
2022-12-25T03:50:44.548Z,2.97
2022-12-25T03:53:40.470Z,5.03
2022-12-25T03:56:26.620Z,3.22
2022-12-25T03:59:21.026Z,3.30
2022-12-25T04:02:09.835Z,3.28
2022-12-25T04:04:55.423Z,2.58
2022-12-25T04:07:40.688Z,3.33
2022-12-25T04:10:27.834Z,3.30
2022-12-25T04:13:13.227Z,5.65
2022-12-25T04:15:58.478Z,2.95
2022-12-25T04:18:43.594Z,3.33
2022-12-25T04:21:29.136Z,4.30
2022-12-25T04:24:14.155Z,4.47
2022-12-25T04:26:59.362Z,2.65
2022-12-25T04:29:44.389Z,3.15
2022-12-25T04:32:30.109Z,2.95
2022-12-25T04:35:15.354Z,3.55
2022-12-25T04:37:42.111Z,3.42
2022-12-25T04:40:09.491Z,4.45
2022-12-25T04:42:36.314Z,2.97
2022-12-25T04:45:03.289Z,3.35
2022-12-25T04:47:30.051Z,3.33
2022-12-25T04:49:56.817Z,2.67
2022-12-25T04:52:23.631Z,2.70
2022-12-25T04:54:50.387Z,3.35
2022-12-25T04:57:17.148Z,3.33
2022-12-25T04:59:43.958Z,5.13
2022-12-25T05:02:11.058Z,4.03
2022-12-25T05:04:37.924Z,3.83
2022-12-25T05:07:04.689Z,2.97
2022-12-25T05:09:31.462Z,2.72
2022-12-25T05:11:58.237Z,4.60
2022-12-25T05:14:25.011Z,4.60
2022-12-25T05:16:51.939Z,5.22
2022-12-25T05:19:18.692Z,7.15
2022-12-25T05:21:45.439Z,2.58
2022-12-25T05:24:12.255Z,3.70
2022-12-25T05:26:39.010Z,4.75
2022-12-25T05:29:06.265Z,3.08
2022-12-25T05:31:33.075Z,4.43
2022-12-25T05:33:59.917Z,4.00
2022-12-25T05:36:27.012Z,4.63
2022-12-25T05:38:53.799Z,3.63
2022-12-25T05:41:20.744Z,4.43
2022-12-25T05:43:47.539Z,5.25
2022-12-25T05:46:14.508Z,3.22
2022-12-25T05:48:41.677Z,4.85
2022-12-25T05:51:12.128Z,2.40
2022-12-25T05:53:39.984Z,3.88
2022-12-25T05:56:08.794Z,3.13
2022-12-25T05:58:38.836Z,5.40
2022-12-25T06:01:17.015Z,3.17
2022-12-25T06:03:43.888Z,3.08
2022-12-25T06:06:11.577Z,4.88
2022-12-25T06:08:38.568Z,3.33
2022-12-25T06:11:07.699Z,3.35
2022-12-25T06:13:35.675Z,2.53
2022-12-25T06:16:11.681Z,3.60
2022-12-25T06:18:41.676Z,3.33
2022-12-25T06:23:38.254Z,3.33
2022-12-25T06:26:08.340Z,3.95
2022-12-25T06:31:15.888Z,4.88
2022-12-25T06:33:42.756Z,8.07
2022-12-25T06:36:13.681Z,4.55
2022-12-25T06:38:40.756Z,6.68
2022-12-25T06:41:15.440Z,3.50
2022-12-25T06:43:42.395Z,3.58
2022-12-25T06:46:12.021Z,3.58
2022-12-25T06:48:40.392Z,3.28
2022-12-25T06:51:07.593Z,3.60
2022-12-25T06:53:40.404Z,3.45
2022-12-25T06:56:15.353Z,4.50
2022-12-25T06:58:50.775Z,3.80
2022-12-25T07:01:22.372Z,6.18
2022-12-25T07:03:53.688Z,6.88
2022-12-25T07:06:20.751Z,4.90
2022-12-25T07:08:47.545Z,3.83
2022-12-25T07:11:14.588Z,3.17
2022-12-25T07:13:41.449Z,3.97
2022-12-25T07:16:09.933Z,3.42
2022-12-25T07:18:36.897Z,3.15
2022-12-25T07:21:13.082Z,3.28
2022-12-25T07:23:40.263Z,3.22
2022-12-25T07:26:07.739Z,3.25
2022-12-25T07:28:34.641Z,4.22
2022-12-25T07:31:04.044Z,4.15
2022-12-25T07:33:30.992Z,3.33
2022-12-25T07:35:57.907Z,4.10
2022-12-25T07:38:24.704Z,3.75
2022-12-25T07:40:51.847Z,3.30
2022-12-25T07:43:18.625Z,5.35
2022-12-25T07:45:45.442Z,4.53
2022-12-25T07:48:16.662Z,5.90
2022-12-25T07:50:44.168Z,3.90
2022-12-25T07:53:10.925Z,4.32
2022-12-25T07:55:37.693Z,4.45
2022-12-25T07:58:04.481Z,4.00
2022-12-25T08:00:34.137Z,4.05
2022-12-25T08:03:01.137Z,4.43
2022-12-25T08:05:28.012Z,3.70
2022-12-25T08:07:57.792Z,3.55
2022-12-25T08:10:25.138Z,5.93
2022-12-25T08:12:52.070Z,5.35
2022-12-25T08:15:18.940Z,4.05
2022-12-25T08:17:46.088Z,4.03
2022-12-25T08:20:13.455Z,4.40
2022-12-25T08:22:40.205Z,3.78
2022-12-25T08:25:07.399Z,6.75
2022-12-25T08:27:34.257Z,4.63
2022-12-25T08:30:01.029Z,5.50
2022-12-25T08:32:27.906Z,3.88
2022-12-25T08:34:54.669Z,4.55
2022-12-25T08:37:21.447Z,4.43
2022-12-25T08:39:48.194Z,4.93
2022-12-25T08:42:15.426Z,4.90
2022-12-25T08:44:42.270Z,7.13
2022-12-25T08:47:09.035Z,5.88
2022-12-25T08:49:36.769Z,6.00
2022-12-25T08:52:03.691Z,7.82
2022-12-25T08:54:32.446Z,5.05
2022-12-25T08:57:02.890Z,5.20
2022-12-25T08:59:30.202Z,5.28
2022-12-25T09:01:57.032Z,3.97
2022-12-25T09:04:23.872Z,4.15
2022-12-25T09:06:51.054Z,3.83
2022-12-25T09:09:17.922Z,5.40
2022-12-25T09:11:44.731Z,5.22
2022-12-25T09:14:13.687Z,3.83
2022-12-25T09:16:40.689Z,5.05
2022-12-25T09:19:07.558Z,4.03
2022-12-25T09:21:36.539Z,4.63
2022-12-25T09:24:04.698Z,3.95
2022-12-25T09:26:31.480Z,4.07
2022-12-25T09:28:58.274Z,4.88
2022-12-25T09:31:25.133Z,7.03
2022-12-25T09:33:52.130Z,4.88
2022-12-25T09:36:21.117Z,5.05
2022-12-25T09:38:47.889Z,5.35
2022-12-25T09:41:16.092Z,4.50
2022-12-25T09:43:56.600Z,4.63
2022-12-25T09:46:34.748Z,4.35
2022-12-25T09:49:13.995Z,4.15
2022-12-25T09:51:45.802Z,4.45
2022-12-25T09:54:27.421Z,10.80
2022-12-25T09:56:54.169Z,5.30
2022-12-25T09:59:27.123Z,4.35
2022-12-25T10:02:38.433Z,5.18
2022-12-25T10:05:40.048Z,3.70
2022-12-25T10:08:27.172Z,7.38
2022-12-25T10:11:51.339Z,4.40
2022-12-25T10:14:49.825Z,6.55
2022-12-25T10:17:42.447Z,4.70
2022-12-25T10:20:45.829Z,4.72
2022-12-25T10:23:37.930Z,3.33
2022-12-25T10:26:21.448Z,6.65
2022-12-25T10:29:17.217Z,5.13
2022-12-25T10:31:50.172Z,3.95
2022-12-25T10:34:17.367Z,5.38
2022-12-25T10:36:46.105Z,3.63
2022-12-25T10:39:26.545Z,4.22
2022-12-25T10:42:11.185Z,4.57
2022-12-25T10:44:38.007Z,3.58
2022-12-25T10:47:05.634Z,4.10
2022-12-25T10:49:37.734Z,4.68
2022-12-25T10:52:27.932Z,3.60
2022-12-25T10:54:55.660Z,4.10
2022-12-25T10:57:25.765Z,3.28
2022-12-25T10:59:56.284Z,3.58
2022-12-25T11:02:40.005Z,4.00
2022-12-25T11:05:25.923Z,3.75
2022-12-25T11:07:55.157Z,3.10
2022-12-25T11:10:34.299Z,4.32
2022-12-25T11:13:02.747Z,5.60
2022-12-25T11:15:43.765Z,4.78
2022-12-25T11:18:34.069Z,3.03
2022-12-25T11:21:31.800Z,3.45
2022-12-25T11:24:05.161Z,2.72
2022-12-25T11:26:50.354Z,3.03
2022-12-25T11:29:59.844Z,3.10
2022-12-25T11:32:31.875Z,2.15
2022-12-25T11:35:00.362Z,3.17
2022-12-25T11:37:45.439Z,2.22
2022-12-25T11:40:25.347Z,3.08
2022-12-25T11:45:40.207Z,2.65
2022-12-25T11:48:26.278Z,3.70
2022-12-25T11:51:00.982Z,3.13
2022-12-25T11:53:46.061Z,4.28
2022-12-25T11:56:33.106Z,2.60
2022-12-25T11:59:23.901Z,3.88
2022-12-25T12:02:08.934Z,1.98
2022-12-25T12:04:44.775Z,3.35
2022-12-25T12:07:24.511Z,2.22
2022-12-25T12:10:02.968Z,1.88
2022-12-25T12:12:48.782Z,2.55
2022-12-25T12:15:35.995Z,2.10
2022-12-25T12:18:32.234Z,3.80
2022-12-25T12:21:27.738Z,2.38
2022-12-25T12:24:12.411Z,2.85
2022-12-25T12:26:42.449Z,1.95
2022-12-25T12:29:28.454Z,2.00
2022-12-25T12:32:01.794Z,1.83
2022-12-25T12:34:42.762Z,2.28
2022-12-25T12:37:29.428Z,2.03
2022-12-25T12:39:57.179Z,3.17
2022-12-25T12:42:29.914Z,2.45
2022-12-25T12:45:08.913Z,1.55
2022-12-25T12:47:43.593Z,2.13
2022-12-25T12:50:38.022Z,2.15
2022-12-25T12:53:23.296Z,1.35
2022-12-25T12:55:51.797Z,1.75
2022-12-25T12:58:49.954Z,3.17
2022-12-25T13:01:45.556Z,3.80
2022-12-25T13:04:39.564Z,2.75
2022-12-25T13:07:54.882Z,3.58
2022-12-25T13:10:37.669Z,11.20
2022-12-25T13:13:18.698Z,5.22
2022-12-25T13:15:48.339Z,2.10
2022-12-25T13:18:15.761Z,3.33
2022-12-25T13:20:57.991Z,4.32
2022-12-25T13:23:37.425Z,2.15
2022-12-25T13:26:12.391Z,1.58
2022-12-25T13:28:39.337Z,0.98
2022-12-25T13:31:17.304Z,1.92
2022-12-25T13:34:23.193Z,1.48
2022-12-25T13:36:50.269Z,1.40
2022-12-25T13:39:18.165Z,1.90
2022-12-25T13:42:05.799Z,2.15
2022-12-25T13:44:42.429Z,1.95
2022-12-25T13:47:24.327Z,1.05
2022-12-25T13:49:56.045Z,1.38
2022-12-25T13:52:37.686Z,1.77
2022-12-25T13:55:15.593Z,3.92
2022-12-25T13:57:59.436Z,2.90
2022-12-25T14:00:37.377Z,1.75
2022-12-25T14:03:07.233Z,1.25
2022-12-25T14:05:42.761Z,2.42
2022-12-25T14:08:23.372Z,1.60
2022-12-25T14:10:52.662Z,0.90
2022-12-25T14:13:24.753Z,1.17
2022-12-25T14:15:53.367Z,3.88
2022-12-25T14:18:23.072Z,1.88
2022-12-25T14:21:06.623Z,1.50
2022-12-25T14:23:48.391Z,1.80
2022-12-25T14:26:19.097Z,0.93
2022-12-25T14:29:07.764Z,2.47
2022-12-25T14:31:38.403Z,1.20
2022-12-25T14:34:13.640Z,1.38
2022-12-25T14:36:40.827Z,1.15
2022-12-25T14:39:47.019Z,1.27
2022-12-25T14:42:25.874Z,0.50
2022-12-25T14:45:26.378Z,0.77
2022-12-25T14:48:21.187Z,2.30
2022-12-25T14:51:04.358Z,1.15
2022-12-25T14:53:53.523Z,1.42
2022-12-25T14:56:22.527Z,2.05
2022-12-25T14:58:56.607Z,0.90
2022-12-25T15:01:32.713Z,1.38
2022-12-25T15:04:11.929Z,1.17
2022-12-25T15:07:01.170Z,1.17
2022-12-25T15:09:29.772Z,1.08
2022-12-25T15:11:56.791Z,1.50
2022-12-25T15:14:25.750Z,1.25
2022-12-25T15:16:57.317Z,1.00
2022-12-25T15:19:38.276Z,1.23
2022-12-25T15:22:06.399Z,1.45
2022-12-25T15:24:33.291Z,1.30
2022-12-25T15:27:00.618Z,1.20
2022-12-25T15:30:00.031Z,2.45
2022-12-25T15:32:22.014Z,1.40
2022-12-25T15:34:49.998Z,1.52
2022-12-25T15:37:18.792Z,1.63
2022-12-25T15:39:45.932Z,1.58
2022-12-25T15:42:16.907Z,2.10
2022-12-25T15:44:45.134Z,2.17
2022-12-25T15:47:13.718Z,1.13
2022-12-25T15:49:40.640Z,1.35
2022-12-25T15:52:10.614Z,0.90
2022-12-25T15:57:09.785Z,1.25
2022-12-25T15:59:36.573Z,0.90
2022-12-25T16:02:03.492Z,1.67
2022-12-25T16:04:31.281Z,1.38
2022-12-25T16:07:02.766Z,1.40
2022-12-25T16:09:29.557Z,2.75
2022-12-25T16:11:56.322Z,1.63
2022-12-25T16:14:23.177Z,1.48
2022-12-25T16:16:49.967Z,1.15
2022-12-25T16:19:16.753Z,1.95
2022-12-25T16:21:45.817Z,1.42
2022-12-25T16:24:13.882Z,1.77
2022-12-25T16:26:41.297Z,4.07
2022-12-25T16:29:08.271Z,1.85
2022-12-25T16:31:36.603Z,3.95
2022-12-25T16:34:05.645Z,3.55
2022-12-25T16:36:33.121Z,3.42
2022-12-25T16:39:00.181Z,2.28
2022-12-25T16:41:27.001Z,1.92
2022-12-25T16:43:53.791Z,3.15
2022-12-25T16:46:22.731Z,2.17
2022-12-25T16:48:49.760Z,3.47
2022-12-25T16:51:19.898Z,2.80
2022-12-25T16:53:47.127Z,2.95
2022-12-25T16:56:20.407Z,5.78
2022-12-25T16:58:47.779Z,6.95
2022-12-25T17:01:18.466Z,6.43
2022-12-25T17:03:47.084Z,5.82
2022-12-25T17:06:20.569Z,36.38
2022-12-25T17:08:47.757Z,68.57
2022-12-25T17:11:15.429Z,52.83
2022-12-25T17:13:47.468Z,41.58
2022-12-25T17:16:24.780Z,19.52
2022-12-25T17:19:07.986Z,9.18
2022-12-25T17:21:36.581Z,11.15
2022-12-25T17:24:04.447Z,8.98
2022-12-25T17:26:33.141Z,5.55
2022-12-25T17:29:00.481Z,6.32
2022-12-25T17:31:28.218Z,12.20
2022-12-25T17:33:55.378Z,9.07
2022-12-25T17:36:22.705Z,6.50
2022-12-25T17:38:50.015Z,9.57
2022-12-25T17:41:18.656Z,6.55
2022-12-25T17:43:46.032Z,8.23
2022-12-25T17:46:20.435Z,6.95
2022-12-25T17:48:49.797Z,9.35
2022-12-25T17:51:19.780Z,10.38
2022-12-25T17:53:50.715Z,6.82
2022-12-25T17:56:18.880Z,5.10
2022-12-25T17:58:51.687Z,3.90
2022-12-25T18:01:19.621Z,3.70
2022-12-25T18:03:46.720Z,3.92
2022-12-25T18:06:17.662Z,3.17
2022-12-25T18:08:46.353Z,3.97
2022-12-25T18:11:19.839Z,4.28
2022-12-25T18:13:51.669Z,2.97
2022-12-25T18:16:22.766Z,5.18
2022-12-25T18:18:52.628Z,3.50
2022-12-25T18:21:21.798Z,4.10
2022-12-25T18:23:49.434Z,2.60
2022-12-25T18:26:16.776Z,3.25
2022-12-25T18:28:43.926Z,2.90
2022-12-25T18:31:16.777Z,2.50
2022-12-25T18:33:44.609Z,5.18
2022-12-25T18:36:15.072Z,4.00
2022-12-25T18:38:42.283Z,2.70
2022-12-25T18:41:10.867Z,3.20
2022-12-25T18:43:53.959Z,3.03
2022-12-25T18:46:27.248Z,4.28
2022-12-25T18:48:57.717Z,3.15
2022-12-25T18:51:26.616Z,3.53
2022-12-25T18:53:57.161Z,2.92
2022-12-25T18:56:23.971Z,2.95
2022-12-25T18:58:50.726Z,3.30
2022-12-25T19:01:23.257Z,2.92
2022-12-25T19:03:53.871Z,3.30
2022-12-25T19:06:27.486Z,4.72
2022-12-25T19:08:55.647Z,3.90
2022-12-25T19:11:23.452Z,7.97
2022-12-25T19:13:50.267Z,8.80
2022-12-25T19:16:17.798Z,7.18
2022-12-25T19:18:45.264Z,6.20
2022-12-25T19:21:12.214Z,3.88
2022-12-25T19:23:39.507Z,3.58
2022-12-25T19:26:08.266Z,3.97
2022-12-25T19:28:36.069Z,3.40
2022-12-25T19:31:07.550Z,2.63
2022-12-25T19:33:36.120Z,3.95
2022-12-25T19:36:21.061Z,3.05
2022-12-25T19:38:48.056Z,4.22
2022-12-25T19:41:18.325Z,2.83
2022-12-25T19:43:47.618Z,5.45
2022-12-25T19:46:24.859Z,5.22
2022-12-25T19:48:52.460Z,4.45
2022-12-25T19:51:29.413Z,3.60
2022-12-25T19:53:56.664Z,4.38
2022-12-25T19:56:25.040Z,3.67
2022-12-25T19:58:51.956Z,3.03
2022-12-25T20:01:21.554Z,5.25
2022-12-25T20:03:49.067Z,4.65
2022-12-25T20:06:26.858Z,5.10
2022-12-25T20:08:59.795Z,4.68
2022-12-25T20:11:29.831Z,3.38
2022-12-25T20:13:57.148Z,3.67
2022-12-25T20:16:25.138Z,5.22
2022-12-25T20:18:52.759Z,3.20
2022-12-25T20:21:22.800Z,3.28
2022-12-25T20:23:51.744Z,4.25
2022-12-25T20:26:22.233Z,3.80
2022-12-25T20:28:49.385Z,4.38
2022-12-25T20:31:24.683Z,3.40
2022-12-25T20:33:51.500Z,4.00
2022-12-25T20:36:18.785Z,2.65
2022-12-25T20:38:45.614Z,4.60
2022-12-25T20:41:31.451Z,3.90
2022-12-25T20:43:58.418Z,3.22
2022-12-25T20:46:26.046Z,3.67
2022-12-25T20:48:54.139Z,4.20
2022-12-25T20:51:23.931Z,3.03
2022-12-25T20:53:51.504Z,4.47
2022-12-25T20:56:22.119Z,6.20
2022-12-25T20:58:54.872Z,3.03
2022-12-25T21:01:21.778Z,2.65
2022-12-25T21:03:48.764Z,3.95
2022-12-25T21:06:16.418Z,3.65
2022-12-25T21:08:43.311Z,2.85
2022-12-25T21:11:10.987Z,3.13
2022-12-25T21:13:41.396Z,8.10
2022-12-25T21:16:12.591Z,3.33
2022-12-25T21:18:39.429Z,3.70
2022-12-25T21:21:07.615Z,4.03
2022-12-25T21:23:37.020Z,3.80
2022-12-25T21:26:27.937Z,3.33
2022-12-25T21:28:57.859Z,3.33
2022-12-25T21:33:53.192Z,2.75
2022-12-25T21:36:26.629Z,4.75
2022-12-25T21:39:07.820Z,3.88
2022-12-25T21:41:37.956Z,4.68
2022-12-25T21:44:05.772Z,3.35
2022-12-25T21:46:32.694Z,4.35
2022-12-25T21:49:00.556Z,3.53
2022-12-25T21:51:50.054Z,3.95
2022-12-25T21:54:20.497Z,4.45
2022-12-25T21:56:48.642Z,2.95
2022-12-25T21:59:21.417Z,2.78
2022-12-25T22:01:50.754Z,4.50
2022-12-25T22:04:19.952Z,5.80
2022-12-25T22:07:05.849Z,5.87
2022-12-25T22:09:33.087Z,4.78
2022-12-25T22:12:18.826Z,5.30
2022-12-25T22:14:57.106Z,4.57
2022-12-25T22:17:49.353Z,6.63
2022-12-25T22:20:28.040Z,6.38
2022-12-25T22:22:55.078Z,7.85
2022-12-25T22:25:22.688Z,9.32
2022-12-25T22:27:50.452Z,10.07
2022-12-25T22:30:24.658Z,7.22
2022-12-25T22:32:52.824Z,6.15
2022-12-25T22:35:20.739Z,6.65
2022-12-25T22:37:48.236Z,5.70
2022-12-25T22:40:17.724Z,7.03
2022-12-25T22:42:44.860Z,5.43
2022-12-25T22:45:12.679Z,4.88
2022-12-25T22:47:40.435Z,4.60
2022-12-25T22:50:08.221Z,3.47
2022-12-25T22:52:34.986Z,4.97
2022-12-25T22:55:02.370Z,4.47
2022-12-25T22:57:29.283Z,3.22
2022-12-25T22:59:56.111Z,4.40
2022-12-25T23:02:23.223Z,3.53
2022-12-25T23:04:50.364Z,4.85
2022-12-25T23:07:17.439Z,4.43
2022-12-25T23:09:44.499Z,4.55
2022-12-25T23:12:31.517Z,3.47
2022-12-25T23:14:58.326Z,5.88
2022-12-25T23:17:44.362Z,4.30
2022-12-25T23:20:33.284Z,5.05
2022-12-25T23:23:19.050Z,4.33
2022-12-25T23:26:04.657Z,4.53
2022-12-25T23:28:49.833Z,4.38
2022-12-25T23:31:16.894Z,3.83
2022-12-25T23:33:43.875Z,3.83
2022-12-25T23:36:10.636Z,3.10
2022-12-25T23:38:37.472Z,3.90
2022-12-25T23:41:04.273Z,2.85
2022-12-25T23:43:31.067Z,5.60
2022-12-25T23:45:57.836Z,4.03
2022-12-25T23:48:24.656Z,2.85
2022-12-25T23:50:51.520Z,6.88
2022-12-25T23:53:18.300Z,3.97
2022-12-25T23:55:50.018Z,4.70
2022-12-25T23:58:20.480Z,3.70
